sensor_id;sensor_type;location;lat;lon;timestamp;temperature;humidity
36716;DHT22;22699;51.034;3.730;2023-02-15T00:00:05;7.30;99.90
36716;DHT22;22699;51.034;3.730;2023-02-15T00:02:33;7.30;99.90
36716;DHT22;22699;51.034;3.730;2023-02-15T00:05:02;7.20;99.90
36716;DHT22;22699;51.034;3.730;2023-02-15T00:07:27;7.20;99.90
36716;DHT22;22699;51.034;3.730;2023-02-15T00:09:53;7.20;99.90
36716;DHT22;22699;51.034;3.730;2023-02-15T00:12:19;7.10;99.90
36716;DHT22;22699;51.034;3.730;2023-02-15T00:14:44;7.10;99.90
36716;DHT22;22699;51.034;3.730;2023-02-15T00:17:11;7.10;99.90
36716;DHT22;22699;51.034;3.730;2023-02-15T00:19:37;7.00;99.90
36716;DHT22;22699;51.034;3.730;2023-02-15T00:22:02;7.00;99.90
36716;DHT22;22699;51.034;3.730;2023-02-15T00:24:30;7.00;99.90
36716;DHT22;22699;51.034;3.730;2023-02-15T00:26:58;7.00;99.90
36716;DHT22;22699;51.034;3.730;2023-02-15T00:29:24;6.90;99.90
36716;DHT22;22699;51.034;3.730;2023-02-15T00:31:50;6.90;99.90
36716;DHT22;22699;51.034;3.730;2023-02-15T00:34:20;6.90;99.90
36716;DHT22;22699;51.034;3.730;2023-02-15T00:36:47;6.90;99.90
36716;DHT22;22699;51.034;3.730;2023-02-15T00:39:14;6.90;99.90
36716;DHT22;22699;51.034;3.730;2023-02-15T00:41:40;7.00;99.90
36716;DHT22;22699;51.034;3.730;2023-02-15T00:44:06;7.00;99.90
36716;DHT22;22699;51.034;3.730;2023-02-15T00:46:33;6.90;99.90
36716;DHT22;22699;51.034;3.730;2023-02-15T00:49:02;6.90;99.90
36716;DHT22;22699;51.034;3.730;2023-02-15T00:51:28;6.90;99.90
36716;DHT22;22699;51.034;3.730;2023-02-15T00:53:55;6.90;99.90
36716;DHT22;22699;51.034;3.730;2023-02-15T00:56:21;6.90;99.90
36716;DHT22;22699;51.034;3.730;2023-02-15T00:58:50;7.00;99.90
36716;DHT22;22699;51.034;3.730;2023-02-15T01:01:27;6.90;99.90
36716;DHT22;22699;51.034;3.730;2023-02-15T01:03:53;7.00;99.90
36716;DHT22;22699;51.034;3.730;2023-02-15T01:06:19;6.90;99.90
36716;DHT22;22699;51.034;3.730;2023-02-15T01:08:46;6.90;99.90
36716;DHT22;22699;51.034;3.730;2023-02-15T01:11:18;6.90;99.90
36716;DHT22;22699;51.034;3.730;2023-02-15T01:13:57;6.90;99.90
36716;DHT22;22699;51.034;3.730;2023-02-15T01:16:25;6.90;99.90
36716;DHT22;22699;51.034;3.730;2023-02-15T01:18:53;6.80;99.90
36716;DHT22;22699;51.034;3.730;2023-02-15T01:21:21;6.80;99.90
36716;DHT22;22699;51.034;3.730;2023-02-15T01:23:47;6.70;99.90
36716;DHT22;22699;51.034;3.730;2023-02-15T01:26:14;6.70;99.90
36716;DHT22;22699;51.034;3.730;2023-02-15T01:28:40;6.60;99.90
36716;DHT22;22699;51.034;3.730;2023-02-15T01:31:12;6.60;99.90
36716;DHT22;22699;51.034;3.730;2023-02-15T01:33:38;6.60;99.90
36716;DHT22;22699;51.034;3.730;2023-02-15T01:36:04;6.60;99.90
36716;DHT22;22699;51.034;3.730;2023-02-15T01:38:30;6.60;99.90
36716;DHT22;22699;51.034;3.730;2023-02-15T01:40:57;6.60;99.90
36716;DHT22;22699;51.034;3.730;2023-02-15T01:43:45;6.60;99.90
36716;DHT22;22699;51.034;3.730;2023-02-15T01:46:14;6.50;99.90
36716;DHT22;22699;51.034;3.730;2023-02-15T01:48:46;6.50;99.90
36716;DHT22;22699;51.034;3.730;2023-02-15T01:51:15;6.50;99.90
36716;DHT22;22699;51.034;3.730;2023-02-15T01:53:45;6.60;99.90
36716;DHT22;22699;51.034;3.730;2023-02-15T01:56:20;6.50;99.90
36716;DHT22;22699;51.034;3.730;2023-02-15T01:58:50;6.40;99.90
36716;DHT22;22699;51.034;3.730;2023-02-15T02:01:17;6.40;99.90
36716;DHT22;22699;51.034;3.730;2023-02-15T02:06:10;6.90;99.90
36716;DHT22;22699;51.034;3.730;2023-02-15T02:08:41;6.40;99.90
36716;DHT22;22699;51.034;3.730;2023-02-15T02:11:13;6.40;99.90
36716;DHT22;22699;51.034;3.730;2023-02-15T02:13:42;6.30;99.90
36716;DHT22;22699;51.034;3.730;2023-02-15T02:25:10;6.20;99.90
36716;DHT22;22699;51.034;3.730;2023-02-15T02:27:41;6.20;99.90
36716;DHT22;22699;51.034;3.730;2023-02-15T02:30:32;6.20;99.90
36716;DHT22;22699;51.034;3.730;2023-02-15T02:33:16;6.20;99.90
36716;DHT22;22699;51.034;3.730;2023-02-15T02:44:34;6.20;99.90
36716;DHT22;22699;51.034;3.730;2023-02-15T02:47:22;6.20;99.90
36716;DHT22;22699;51.034;3.730;2023-02-15T02:50:00;6.10;99.90
36716;DHT22;22699;51.034;3.730;2023-02-15T02:52:49;6.10;99.90
36716;DHT22;22699;51.034;3.730;2023-02-15T02:58:21;6.00;99.90
36716;DHT22;22699;51.034;3.730;2023-02-15T03:01:01;5.90;99.90
36716;DHT22;22699;51.034;3.730;2023-02-15T03:03:58;6.00;99.90
36716;DHT22;22699;51.034;3.730;2023-02-15T03:09:18;5.90;99.90
36716;DHT22;22699;51.034;3.730;2023-02-15T03:11:49;6.00;99.90
36716;DHT22;22699;51.034;3.730;2023-02-15T03:14:17;6.00;99.90
36716;DHT22;22699;51.034;3.730;2023-02-15T03:16:46;5.90;99.90
36716;DHT22;22699;51.034;3.730;2023-02-15T03:19:17;5.90;99.90
36716;DHT22;22699;51.034;3.730;2023-02-15T03:21:50;5.90;99.90
36716;DHT22;22699;51.034;3.730;2023-02-15T03:24:43;5.90;99.90
36716;DHT22;22699;51.034;3.730;2023-02-15T03:27:16;5.90;99.90
36716;DHT22;22699;51.034;3.730;2023-02-15T03:29:46;5.80;99.90
36716;DHT22;22699;51.034;3.730;2023-02-15T03:32:15;5.70;99.90
36716;DHT22;22699;51.034;3.730;2023-02-15T03:34:44;5.70;99.90
36716;DHT22;22699;51.034;3.730;2023-02-15T03:37:26;5.60;99.90
36716;DHT22;22699;51.034;3.730;2023-02-15T03:40:00;5.60;99.90
36716;DHT22;22699;51.034;3.730;2023-02-15T03:42:53;5.60;99.90
36716;DHT22;22699;51.034;3.730;2023-02-15T03:45:25;5.60;99.90
36716;DHT22;22699;51.034;3.730;2023-02-15T03:47:54;5.60;99.90
36716;DHT22;22699;51.034;3.730;2023-02-15T03:50:32;5.50;99.90
36716;DHT22;22699;51.034;3.730;2023-02-15T03:53:20;5.50;99.90
36716;DHT22;22699;51.034;3.730;2023-02-15T03:55:53;5.50;99.90
36716;DHT22;22699;51.034;3.730;2023-02-15T03:58:19;5.50;99.90
36716;DHT22;22699;51.034;3.730;2023-02-15T04:01:21;5.40;99.90
36716;DHT22;22699;51.034;3.730;2023-02-15T04:04:18;5.40;99.90
36716;DHT22;22699;51.034;3.730;2023-02-15T04:06:47;5.40;99.90
36716;DHT22;22699;51.034;3.730;2023-02-15T04:09:15;5.90;99.90
36716;DHT22;22699;51.034;3.730;2023-02-15T04:12:00;5.40;99.90
36716;DHT22;22699;51.034;3.730;2023-02-15T04:14:25;5.40;99.90
36716;DHT22;22699;51.034;3.730;2023-02-15T04:17:10;5.50;99.90
36716;DHT22;22699;51.034;3.730;2023-02-15T04:19:37;5.50;99.90
36716;DHT22;22699;51.034;3.730;2023-02-15T04:22:21;5.60;99.90
36716;DHT22;22699;51.034;3.730;2023-02-15T04:25:07;5.60;99.90
36716;DHT22;22699;51.034;3.730;2023-02-15T04:27:45;5.70;99.90
36716;DHT22;22699;51.034;3.730;2023-02-15T04:30:14;5.60;99.90
36716;DHT22;22699;51.034;3.730;2023-02-15T04:32:40;5.40;99.90
36716;DHT22;22699;51.034;3.730;2023-02-15T04:35:06;5.40;99.90
36716;DHT22;22699;51.034;3.730;2023-02-15T04:37:38;5.40;99.90
36716;DHT22;22699;51.034;3.730;2023-02-15T04:40:09;5.40;99.90
36716;DHT22;22699;51.034;3.730;2023-02-15T04:42:36;5.40;99.90
36716;DHT22;22699;51.034;3.730;2023-02-15T04:45:03;5.40;99.90
36716;DHT22;22699;51.034;3.730;2023-02-15T04:47:31;5.40;99.90
36716;DHT22;22699;51.034;3.730;2023-02-15T04:49:56;5.40;99.90
36716;DHT22;22699;51.034;3.730;2023-02-15T04:52:22;5.30;99.90
36716;DHT22;22699;51.034;3.730;2023-02-15T04:54:48;5.30;99.90
36716;DHT22;22699;51.034;3.730;2023-02-15T04:57:14;5.30;99.90
36716;DHT22;22699;51.034;3.730;2023-02-15T04:59:40;5.20;99.90
36716;DHT22;22699;51.034;3.730;2023-02-15T05:02:06;5.20;99.90
36716;DHT22;22699;51.034;3.730;2023-02-15T05:04:32;5.20;99.90
36716;DHT22;22699;51.034;3.730;2023-02-15T05:06:57;5.20;99.90
36716;DHT22;22699;51.034;3.730;2023-02-15T05:09:23;5.20;99.90
36716;DHT22;22699;51.034;3.730;2023-02-15T05:11:50;5.20;99.90
36716;DHT22;22699;51.034;3.730;2023-02-15T05:14:15;5.20;99.90
36716;DHT22;22699;51.034;3.730;2023-02-15T05:16:41;5.20;99.90
36716;DHT22;22699;51.034;3.730;2023-02-15T05:19:06;5.20;99.90
36716;DHT22;22699;51.034;3.730;2023-02-15T05:21:33;5.20;99.90
36716;DHT22;22699;51.034;3.730;2023-02-15T05:24:02;5.20;99.90
36716;DHT22;22699;51.034;3.730;2023-02-15T05:26:49;5.20;99.90
36716;DHT22;22699;51.034;3.730;2023-02-15T05:29:34;5.20;99.90
36716;DHT22;22699;51.034;3.730;2023-02-15T05:31:59;5.20;99.90
36716;DHT22;22699;51.034;3.730;2023-02-15T05:34:25;5.20;99.90
36716;DHT22;22699;51.034;3.730;2023-02-15T05:36:52;5.10;99.90
36716;DHT22;22699;51.034;3.730;2023-02-15T05:39:18;5.20;99.90
36716;DHT22;22699;51.034;3.730;2023-02-15T05:41:43;5.10;99.90
36716;DHT22;22699;51.034;3.730;2023-02-15T05:44:12;5.10;99.90
36716;DHT22;22699;51.034;3.730;2023-02-15T05:46:40;5.10;99.90
36716;DHT22;22699;51.034;3.730;2023-02-15T05:49:06;5.10;99.90
36716;DHT22;22699;51.034;3.730;2023-02-15T05:51:31;5.10;99.90
36716;DHT22;22699;51.034;3.730;2023-02-15T05:53:58;5.10;99.90
36716;DHT22;22699;51.034;3.730;2023-02-15T05:56:24;5.10;99.90
36716;DHT22;22699;51.034;3.730;2023-02-15T05:58:49;5.10;99.90
36716;DHT22;22699;51.034;3.730;2023-02-15T06:01:18;5.10;99.90
36716;DHT22;22699;51.034;3.730;2023-02-15T06:03:47;5.00;99.90
36716;DHT22;22699;51.034;3.730;2023-02-15T06:06:13;5.00;99.90
36716;DHT22;22699;51.034;3.730;2023-02-15T06:08:40;5.00;99.90
36716;DHT22;22699;51.034;3.730;2023-02-15T06:11:06;5.60;99.90
36716;DHT22;22699;51.034;3.730;2023-02-15T06:13:35;5.00;99.90
36716;DHT22;22699;51.034;3.730;2023-02-15T06:16:00;5.10;99.90
36716;DHT22;22699;51.034;3.730;2023-02-15T06:18:26;5.10;99.90
36716;DHT22;22699;51.034;3.730;2023-02-15T06:20:53;5.10;99.90
36716;DHT22;22699;51.034;3.730;2023-02-15T06:23:19;5.10;99.90
36716;DHT22;22699;51.034;3.730;2023-02-15T06:25:46;5.20;99.90
36716;DHT22;22699;51.034;3.730;2023-02-15T06:28:13;5.20;99.90
36716;DHT22;22699;51.034;3.730;2023-02-15T06:30:40;5.20;99.90
36716;DHT22;22699;51.034;3.730;2023-02-15T06:33:06;5.10;99.90
36716;DHT22;22699;51.034;3.730;2023-02-15T06:35:31;5.10;99.90
36716;DHT22;22699;51.034;3.730;2023-02-15T06:37:58;5.10;99.90
36716;DHT22;22699;51.034;3.730;2023-02-15T06:40:24;5.10;99.90
36716;DHT22;22699;51.034;3.730;2023-02-15T06:42:50;5.20;99.90
36716;DHT22;22699;51.034;3.730;2023-02-15T06:45:15;5.20;99.90
36716;DHT22;22699;51.034;3.730;2023-02-15T06:47:41;5.20;99.90
36716;DHT22;22699;51.034;3.730;2023-02-15T06:50:08;5.30;99.90
36716;DHT22;22699;51.034;3.730;2023-02-15T06:52:34;5.30;99.90
36716;DHT22;22699;51.034;3.730;2023-02-15T06:55:02;5.30;99.90
36716;DHT22;22699;51.034;3.730;2023-02-15T06:57:27;5.80;99.90
36716;DHT22;22699;51.034;3.730;2023-02-15T06:59:53;5.40;99.90
36716;DHT22;22699;51.034;3.730;2023-02-15T07:02:19;5.30;99.90
36716;DHT22;22699;51.034;3.730;2023-02-15T07:04:48;5.20;99.90
36716;DHT22;22699;51.034;3.730;2023-02-15T07:07:16;5.10;99.90
36716;DHT22;22699;51.034;3.730;2023-02-15T07:09:44;5.10;99.90
36716;DHT22;22699;51.034;3.730;2023-02-15T07:12:13;5.10;99.90
36716;DHT22;22699;51.034;3.730;2023-02-15T07:14:59;5.10;99.90
36716;DHT22;22699;51.034;3.730;2023-02-15T07:17:26;5.10;99.90
36716;DHT22;22699;51.034;3.730;2023-02-15T07:19:55;5.20;99.90
36716;DHT22;22699;51.034;3.730;2023-02-15T07:22:23;5.30;99.90
36716;DHT22;22699;51.034;3.730;2023-02-15T07:24:49;5.40;99.90
36716;DHT22;22699;51.034;3.730;2023-02-15T07:27:15;5.50;99.90
36716;DHT22;22699;51.034;3.730;2023-02-15T07:29:41;5.60;99.90
36716;DHT22;22699;51.034;3.730;2023-02-15T07:32:08;5.50;99.90
36716;DHT22;22699;51.034;3.730;2023-02-15T07:34:34;5.50;99.90
36716;DHT22;22699;51.034;3.730;2023-02-15T07:36:59;5.60;99.90
36716;DHT22;22699;51.034;3.730;2023-02-15T07:39:26;5.50;99.90
36716;DHT22;22699;51.034;3.730;2023-02-15T07:41:52;5.50;99.90
36716;DHT22;22699;51.034;3.730;2023-02-15T07:44:18;5.80;99.90
36716;DHT22;22699;51.034;3.730;2023-02-15T07:46:44;6.20;99.90
36716;DHT22;22699;51.034;3.730;2023-02-15T07:49:10;5.80;99.90
36716;DHT22;22699;51.034;3.730;2023-02-15T07:51:37;5.90;99.90
36716;DHT22;22699;51.034;3.730;2023-02-15T07:54:02;5.90;99.90
36716;DHT22;22699;51.034;3.730;2023-02-15T07:56:28;6.00;99.90
36716;DHT22;22699;51.034;3.730;2023-02-15T07:58:53;6.10;99.90
36716;DHT22;22699;51.034;3.730;2023-02-15T08:01:23;6.20;99.90
36716;DHT22;22699;51.034;3.730;2023-02-15T08:03:55;6.30;99.90
36716;DHT22;22699;51.034;3.730;2023-02-15T08:06:25;6.60;99.90
36716;DHT22;22699;51.034;3.730;2023-02-15T08:08:54;6.80;99.90
36716;DHT22;22699;51.034;3.730;2023-02-15T08:11:34;7.30;99.90
36716;DHT22;22699;51.034;3.730;2023-02-15T08:21:44;13.90;99.90
36716;DHT22;22699;51.034;3.730;2023-02-15T08:24:12;15.10;99.90
36716;DHT22;22699;51.034;3.730;2023-02-15T08:26:39;16.30;99.00
36716;DHT22;22699;51.034;3.730;2023-02-15T08:29:05;17.00;95.10
36716;DHT22;22699;51.034;3.730;2023-02-15T08:31:32;17.00;90.80
36716;DHT22;22699;51.034;3.730;2023-02-15T08:33:58;16.70;89.90
36716;DHT22;22699;51.034;3.730;2023-02-15T08:36:26;16.50;88.40
36716;DHT22;22699;51.034;3.730;2023-02-15T08:38:52;15.70;87.60
36716;DHT22;22699;51.034;3.730;2023-02-15T08:41:24;15.20;88.80
36716;DHT22;22699;51.034;3.730;2023-02-15T08:43:54;14.90;89.60
36716;DHT22;22699;51.034;3.730;2023-02-15T08:46:21;14.50;90.00
36716;DHT22;22699;51.034;3.730;2023-02-15T08:48:47;14.60;89.50
36716;DHT22;22699;51.034;3.730;2023-02-15T08:51:15;14.60;89.60
36716;DHT22;22699;51.034;3.730;2023-02-15T08:53:42;14.30;89.40
36716;DHT22;22699;51.034;3.730;2023-02-15T08:56:09;14.40;88.30
36716;DHT22;22699;51.034;3.730;2023-02-15T08:58:35;14.40;89.50
36716;DHT22;22699;51.034;3.730;2023-02-15T09:01:11;15.10;88.90
36716;DHT22;22699;51.034;3.730;2023-02-15T09:03:37;15.60;86.00
36716;DHT22;22699;51.034;3.730;2023-02-15T09:06:05;15.80;84.60
36716;DHT22;22699;51.034;3.730;2023-02-15T09:08:31;15.30;85.30
36716;DHT22;22699;51.034;3.730;2023-02-15T09:11:09;14.90;85.30
36716;DHT22;22699;51.034;3.730;2023-02-15T09:13:35;14.20;87.40
36716;DHT22;22699;51.034;3.730;2023-02-15T09:16:03;13.40;90.00
36716;DHT22;22699;51.034;3.730;2023-02-15T09:18:31;13.10;91.10
36716;DHT22;22699;51.034;3.730;2023-02-15T09:21:04;13.70;90.70
36716;DHT22;22699;51.034;3.730;2023-02-15T09:23:30;13.70;90.20
36716;DHT22;22699;51.034;3.730;2023-02-15T09:25:56;14.00;90.50
36716;DHT22;22699;51.034;3.730;2023-02-15T09:28:21;14.80;89.20
36716;DHT22;22699;51.034;3.730;2023-02-15T09:30:47;15.50;87.90
36716;DHT22;22699;51.034;3.730;2023-02-15T09:33:15;16.10;85.60
36716;DHT22;22699;51.034;3.730;2023-02-15T09:35:40;16.10;83.70
36716;DHT22;22699;51.034;3.730;2023-02-15T09:38:06;15.00;84.50
36716;DHT22;22699;51.034;3.730;2023-02-15T09:40:37;14.00;87.50
36716;DHT22;22699;51.034;3.730;2023-02-15T09:43:21;13.00;90.40
36716;DHT22;22699;51.034;3.730;2023-02-15T09:48:40;12.10;92.30
36716;DHT22;22699;51.034;3.730;2023-02-15T09:51:18;11.70;92.90
36716;DHT22;22699;51.034;3.730;2023-02-15T09:53:59;11.50;93.60
36716;DHT22;22699;51.034;3.730;2023-02-15T09:56:45;11.40;94.10
36716;DHT22;22699;51.034;3.730;2023-02-15T10:04:34;11.00;95.10
36716;DHT22;22699;51.034;3.730;2023-02-15T10:10:32;10.30;96.80
36716;DHT22;22699;51.034;3.730;2023-02-15T10:19:31;10.20;97.90
36716;DHT22;22699;51.034;3.730;2023-02-15T10:25:23;10.20;98.50
36716;DHT22;22699;51.034;3.730;2023-02-15T10:28:05;10.10;98.80
36716;DHT22;22699;51.034;3.730;2023-02-15T10:33:14;10.30;98.90
36716;DHT22;22699;51.034;3.730;2023-02-15T10:35:57;10.10;99.10
36716;DHT22;22699;51.034;3.730;2023-02-15T10:38:42;10.00;99.50
36716;DHT22;22699;51.034;3.730;2023-02-15T10:41:25;10.00;99.80
36716;DHT22;22699;51.034;3.730;2023-02-15T10:44:18;10.00;99.90
36716;DHT22;22699;51.034;3.730;2023-02-15T10:47:06;10.00;99.80
36716;DHT22;22699;51.034;3.730;2023-02-15T10:49:51;9.90;99.90
36716;DHT22;22699;51.034;3.730;2023-02-15T10:52:32;9.90;99.90
36716;DHT22;22699;51.034;3.730;2023-02-15T11:06:08;10.40;99.90
36716;DHT22;22699;51.034;3.730;2023-02-15T11:08:45;10.50;99.90
36716;DHT22;22699;51.034;3.730;2023-02-15T11:11:31;10.50;99.90
36716;DHT22;22699;51.034;3.730;2023-02-15T11:14:57;10.70;99.90
36716;DHT22;22699;51.034;3.730;2023-02-15T11:17:07;10.90;99.90
36716;DHT22;22699;51.034;3.730;2023-02-15T11:20:15;11.00;99.60
36716;DHT22;22699;51.034;3.730;2023-02-15T11:22:48;11.00;99.20
36716;DHT22;22699;51.034;3.730;2023-02-15T11:25:19;11.00;99.10
36716;DHT22;22699;51.034;3.730;2023-02-15T11:27:53;10.90;99.50
36716;DHT22;22699;51.034;3.730;2023-02-15T11:30:28;10.90;99.80
36716;DHT22;22699;51.034;3.730;2023-02-15T11:32:59;11.00;99.60
36716;DHT22;22699;51.034;3.730;2023-02-15T11:36:00;11.10;99.40
36716;DHT22;22699;51.034;3.730;2023-02-15T11:38:33;11.20;99.40
36716;DHT22;22699;51.034;3.730;2023-02-15T11:41:07;11.40;98.90
36716;DHT22;22699;51.034;3.730;2023-02-15T11:43:56;11.40;99.00
36716;DHT22;22699;51.034;3.730;2023-02-15T11:46:22;11.40;99.10
36716;DHT22;22699;51.034;3.730;2023-02-15T11:48:52;11.50;98.90
36716;DHT22;22699;51.034;3.730;2023-02-15T11:51:27;11.50;98.60
36716;DHT22;22699;51.034;3.730;2023-02-15T11:54:01;11.50;98.90
36716;DHT22;22699;51.034;3.730;2023-02-15T11:56:31;11.70;99.00
36716;DHT22;22699;51.034;3.730;2023-02-15T11:59:00;11.70;98.90
36716;DHT22;22699;51.034;3.730;2023-02-15T12:01:33;11.90;98.70
36716;DHT22;22699;51.034;3.730;2023-02-15T12:04:55;12.00;98.50
36716;DHT22;22699;51.034;3.730;2023-02-15T12:07:25;12.20;98.40
36716;DHT22;22699;51.034;3.730;2023-02-15T12:10:10;12.20;97.60
36716;DHT22;22699;51.034;3.730;2023-02-15T12:12:42;12.00;98.20
36716;DHT22;22699;51.034;3.730;2023-02-15T12:15:10;12.10;98.00
36716;DHT22;22699;51.034;3.730;2023-02-15T12:22:52;12.20;97.90
36716;DHT22;22699;51.034;3.730;2023-02-15T12:25:37;12.30;97.60
36716;DHT22;22699;51.034;3.730;2023-02-15T12:30:53;12.60;97.50
36716;DHT22;22699;51.034;3.730;2023-02-15T12:33:27;12.60;97.20
36716;DHT22;22699;51.034;3.730;2023-02-15T12:35:57;12.60;97.20
36716;DHT22;22699;51.034;3.730;2023-02-15T12:38:26;12.50;97.50
36716;DHT22;22699;51.034;3.730;2023-02-15T12:43:43;12.70;97.50
36716;DHT22;22699;51.034;3.730;2023-02-15T12:46:23;12.20;98.20
36716;DHT22;22699;51.034;3.730;2023-02-15T12:51:48;12.50;97.80
36716;DHT22;22699;51.034;3.730;2023-02-15T12:54:41;12.40;98.10
36716;DHT22;22699;51.034;3.730;2023-02-15T12:57:28;12.40;97.80
36716;DHT22;22699;51.034;3.730;2023-02-15T13:00:05;12.50;97.50
36716;DHT22;22699;51.034;3.730;2023-02-15T13:02:36;12.40;97.90
36716;DHT22;22699;51.034;3.730;2023-02-15T13:05:34;12.80;97.30
36716;DHT22;22699;51.034;3.730;2023-02-15T13:08:13;12.70;97.50
36716;DHT22;22699;51.034;3.730;2023-02-15T13:10:41;12.80;97.20
36716;DHT22;22699;51.034;3.730;2023-02-15T13:13:32;12.60;97.60
36716;DHT22;22699;51.034;3.730;2023-02-15T13:16:11;12.80;96.90
36716;DHT22;22699;51.034;3.730;2023-02-15T13:18:45;12.50;97.40
36716;DHT22;22699;51.034;3.730;2023-02-15T13:21:23;12.50;97.70
36716;DHT22;22699;51.034;3.730;2023-02-15T13:24:33;12.40;98.10
36716;DHT22;22699;51.034;3.730;2023-02-15T13:27:00;12.40;98.40
36716;DHT22;22699;51.034;3.730;2023-02-15T13:29:31;12.50;98.40
36716;DHT22;22699;51.034;3.730;2023-02-15T13:32:12;12.50;98.30
36716;DHT22;22699;51.034;3.730;2023-02-15T13:34:43;12.70;98.30
36716;DHT22;22699;51.034;3.730;2023-02-15T13:37:20;12.80;98.30
36716;DHT22;22699;51.034;3.730;2023-02-15T13:39:58;12.80;97.80
36716;DHT22;22699;51.034;3.730;2023-02-15T13:42:40;12.70;97.40
36716;DHT22;22699;51.034;3.730;2023-02-15T13:51:56;12.50;97.30
36716;DHT22;22699;51.034;3.730;2023-02-15T14:05:13;12.50;97.70
36716;DHT22;22699;51.034;3.730;2023-02-15T14:07:59;12.60;97.80
36716;DHT22;22699;51.034;3.730;2023-02-15T14:10:38;12.50;97.30
36716;DHT22;22699;51.034;3.730;2023-02-15T14:19:29;12.60;98.10
36716;DHT22;22699;51.034;3.730;2023-02-15T14:22:00;12.70;98.50
36716;DHT22;22699;51.034;3.730;2023-02-15T14:25:26;12.80;98.40
36716;DHT22;22699;51.034;3.730;2023-02-15T14:28:18;12.80;98.10
36716;DHT22;22699;51.034;3.730;2023-02-15T14:30:49;12.90;97.70
36716;DHT22;22699;51.034;3.730;2023-02-15T14:35:41;12.70;97.60
36716;DHT22;22699;51.034;3.730;2023-02-15T14:41:05;12.50;98.30
36716;DHT22;22699;51.034;3.730;2023-02-15T14:44:11;12.50;98.60
36716;DHT22;22699;51.034;3.730;2023-02-15T14:46:57;12.50;98.40
36716;DHT22;22699;51.034;3.730;2023-02-15T14:49:36;12.40;98.40
36716;DHT22;22699;51.034;3.730;2023-02-15T14:52:05;12.40;98.50
36716;DHT22;22699;51.034;3.730;2023-02-15T15:04:35;12.40;98.10
36716;DHT22;22699;51.034;3.730;2023-02-15T15:07:18;12.40;98.10
36716;DHT22;22699;51.034;3.730;2023-02-15T15:09:46;12.50;98.00
36716;DHT22;22699;51.034;3.730;2023-02-15T15:14:50;12.00;98.90
36716;DHT22;22699;51.034;3.730;2023-02-15T15:18:05;12.10;98.80
36716;DHT22;22699;51.034;3.730;2023-02-15T15:20:44;12.30;98.40
36716;DHT22;22699;51.034;3.730;2023-02-15T15:25:49;12.40;98.20
36716;DHT22;22699;51.034;3.730;2023-02-15T15:37:29;12.30;98.70
36716;DHT22;22699;51.034;3.730;2023-02-15T15:42:53;12.20;99.00
36716;DHT22;22699;51.034;3.730;2023-02-15T15:50:42;12.20;99.10
36716;DHT22;22699;51.034;3.730;2023-02-15T15:53:20;12.20;99.20
36716;DHT22;22699;51.034;3.730;2023-02-15T15:55:52;12.50;98.60
36716;DHT22;22699;51.034;3.730;2023-02-15T15:58:22;12.50;98.60
36716;DHT22;22699;51.034;3.730;2023-02-15T16:03:30;12.50;98.30
36716;DHT22;22699;51.034;3.730;2023-02-15T16:06:00;12.20;98.80
36716;DHT22;22699;51.034;3.730;2023-02-15T16:08:32;12.20;99.00
36716;DHT22;22699;51.034;3.730;2023-02-15T16:11:16;12.20;99.10
36716;DHT22;22699;51.034;3.730;2023-02-15T16:13:44;12.00;99.30
36716;DHT22;22699;51.034;3.730;2023-02-15T16:16:13;11.90;99.60
36716;DHT22;22699;51.034;3.730;2023-02-15T16:18:46;11.90;99.80
36716;DHT22;22699;51.034;3.730;2023-02-15T16:21:25;11.90;99.80
36716;DHT22;22699;51.034;3.730;2023-02-15T16:24:16;11.80;99.90
36716;DHT22;22699;51.034;3.730;2023-02-15T16:27:14;11.70;99.90
36716;DHT22;22699;51.034;3.730;2023-02-15T16:29:42;11.70;99.90
36716;DHT22;22699;51.034;3.730;2023-02-15T16:32:25;11.90;99.90
36716;DHT22;22699;51.034;3.730;2023-02-15T16:34:56;12.00;99.90
36716;DHT22;22699;51.034;3.730;2023-02-15T16:37:31;12.00;99.80
36716;DHT22;22699;51.034;3.730;2023-02-15T16:40:01;12.00;99.80
36716;DHT22;22699;51.034;3.730;2023-02-15T16:42:27;12.00;99.90
36716;DHT22;22699;51.034;3.730;2023-02-15T16:44:59;11.80;99.90
36716;DHT22;22699;51.034;3.730;2023-02-15T16:47:29;11.70;99.90
36716;DHT22;22699;51.034;3.730;2023-02-15T16:50:00;11.80;99.90
36716;DHT22;22699;51.034;3.730;2023-02-15T16:52:27;11.70;99.90
36716;DHT22;22699;51.034;3.730;2023-02-15T16:54:59;11.50;99.90
36716;DHT22;22699;51.034;3.730;2023-02-15T16:57:37;11.50;99.90
36716;DHT22;22699;51.034;3.730;2023-02-15T17:00:16;11.40;99.90
36716;DHT22;22699;51.034;3.730;2023-02-15T17:03:26;11.40;99.90
36716;DHT22;22699;51.034;3.730;2023-02-15T17:05:50;11.40;99.90
36716;DHT22;22699;51.034;3.730;2023-02-15T17:08:19;11.40;99.90
36716;DHT22;22699;51.034;3.730;2023-02-15T17:13:24;11.00;99.90
36716;DHT22;22699;51.034;3.730;2023-02-15T17:20:59;11.10;99.90
36716;DHT22;22699;51.034;3.730;2023-02-15T17:23:36;11.20;99.90
36716;DHT22;22699;51.034;3.730;2023-02-15T17:26:11;11.30;99.90
36716;DHT22;22699;51.034;3.730;2023-02-15T17:28:38;11.40;99.90
36716;DHT22;22699;51.034;3.730;2023-02-15T17:31:14;11.10;99.90
36716;DHT22;22699;51.034;3.730;2023-02-15T17:33:41;11.30;99.90
36716;DHT22;22699;51.034;3.730;2023-02-15T17:36:28;11.30;99.90
36716;DHT22;22699;51.034;3.730;2023-02-15T17:39:02;11.20;99.90
36716;DHT22;22699;51.034;3.730;2023-02-15T17:41:31;11.10;99.90
36716;DHT22;22699;51.034;3.730;2023-02-15T17:44:00;11.20;99.90
36716;DHT22;22699;51.034;3.730;2023-02-15T17:46:29;11.20;99.90
36716;DHT22;22699;51.034;3.730;2023-02-15T17:48:57;11.10;99.90
36716;DHT22;22699;51.034;3.730;2023-02-15T17:51:23;11.10;99.90
36716;DHT22;22699;51.034;3.730;2023-02-15T17:53:50;11.00;99.90
36716;DHT22;22699;51.034;3.730;2023-02-15T17:56:36;11.00;99.90
36716;DHT22;22699;51.034;3.730;2023-02-15T17:59:04;11.00;99.90
36716;DHT22;22699;51.034;3.730;2023-02-15T18:01:37;10.80;99.90
36716;DHT22;22699;51.034;3.730;2023-02-15T18:04:23;10.90;99.90
36716;DHT22;22699;51.034;3.730;2023-02-15T18:07:09;10.70;99.90
36716;DHT22;22699;51.034;3.730;2023-02-15T18:10:00;10.70;99.90
36716;DHT22;22699;51.034;3.730;2023-02-15T18:12:44;10.60;99.90
36716;DHT22;22699;51.034;3.730;2023-02-15T18:15:12;10.60;99.90
36716;DHT22;22699;51.034;3.730;2023-02-15T18:17:45;10.70;99.90
36716;DHT22;22699;51.034;3.730;2023-02-15T18:20:23;10.70;99.90
36716;DHT22;22699;51.034;3.730;2023-02-15T18:22:51;10.70;99.90
36716;DHT22;22699;51.034;3.730;2023-02-15T18:25:19;10.70;99.90
36716;DHT22;22699;51.034;3.730;2023-02-15T18:27:45;11.00;99.90
36716;DHT22;22699;51.034;3.730;2023-02-15T18:30:16;10.60;99.90
36716;DHT22;22699;51.034;3.730;2023-02-15T18:32:44;10.70;99.90
36716;DHT22;22699;51.034;3.730;2023-02-15T18:35:21;10.50;99.90
36716;DHT22;22699;51.034;3.730;2023-02-15T18:37:48;11.00;99.90
36716;DHT22;22699;51.034;3.730;2023-02-15T18:40:21;10.30;99.90
36716;DHT22;22699;51.034;3.730;2023-02-15T18:42:53;10.30;99.90
36716;DHT22;22699;51.034;3.730;2023-02-15T18:45:25;10.50;99.90